createdAt,value
2018-02-10T00:02:07.876Z,81.60
2018-02-10T00:04:38.694Z,81.70
2018-02-10T00:07:09.167Z,81.40
2018-02-10T00:09:40.875Z,78.70
2018-02-10T00:12:11.799Z,78.70
2018-02-10T00:14:42.659Z,78.60
2018-02-10T00:17:13.605Z,77.70
2018-02-10T00:19:44.457Z,76.80
2018-02-10T00:22:27.069Z,76.50
2018-02-10T00:24:58.784Z,75.70
2018-02-10T00:27:29.798Z,75.60
2018-02-10T00:30:00.570Z,74.60
2018-02-10T00:32:31.341Z,73.10
2018-02-10T00:35:02.758Z,72.70
2018-02-10T00:37:34.323Z,71.70
2018-02-10T00:40:05.773Z,71.30
2018-02-10T00:42:36.712Z,71.20
2018-02-10T00:45:07.506Z,69.10
2018-02-10T00:47:38.337Z,65.80
2018-02-10T00:50:09.051Z,63.80
2018-02-10T00:52:40.529Z,60.40
2018-02-10T00:55:11.490Z,60.40
2018-02-10T00:57:42.219Z,60.10
2018-02-10T01:00:13.629Z,60.70
2018-02-10T01:02:44.554Z,59.50
2018-02-10T01:05:16.122Z,58.90
2018-02-10T01:07:46.793Z,58.30
2018-02-10T01:10:18.473Z,62.40
2018-02-10T01:12:49.374Z,62.40
2018-02-10T01:15:20.286Z,65.20
2018-02-10T01:17:51.713Z,65.60
2018-02-10T01:20:23.723Z,65.00
2018-02-10T01:22:54.386Z,65.00
2018-02-10T01:25:25.325Z,64.50
2018-02-10T01:27:56.267Z,65.80
2018-02-10T01:30:27.016Z,65.10
2018-02-10T01:32:58.756Z,65.40
2018-02-10T01:35:29.702Z,65.30
2018-02-10T01:38:00.515Z,63.60
2018-02-10T01:40:32.605Z,63.90
2018-02-10T01:43:03.093Z,64.00
2018-02-10T01:45:33.866Z,65.20
2018-02-10T01:48:04.670Z,65.10
2018-02-10T01:50:35.740Z,64.70
2018-02-10T01:53:07.257Z,64.30
2018-02-10T01:55:38.008Z,64.30
2018-02-10T01:58:09.482Z,63.30
2018-02-10T02:00:41.283Z,63.30
2018-02-10T02:03:11.842Z,63.00
2018-02-10T02:05:42.438Z,62.70
2018-02-10T02:08:13.310Z,63.60
2018-02-10T02:10:44.165Z,62.30
2018-02-10T02:13:14.952Z,62.20
2018-02-10T02:15:45.721Z,60.40
2018-02-10T02:18:16.676Z,60.50
2018-02-10T02:20:47.411Z,61.60
2018-02-10T02:23:18.307Z,61.00
2018-02-10T02:25:49.184Z,60.90
2018-02-10T02:28:21.205Z,60.00
2018-02-10T02:30:52.058Z,59.80
2018-02-10T02:33:22.893Z,60.10
2018-02-10T02:35:53.581Z,60.00
2018-02-10T02:38:25.161Z,59.90
2018-02-10T02:40:56.863Z,59.90
2018-02-10T02:43:27.593Z,60.00
2018-02-10T02:45:58.408Z,60.40
2018-02-10T02:48:29.226Z,59.70
2018-02-10T02:51:00.061Z,59.60
2018-02-10T02:53:30.946Z,60.40
2018-02-10T02:56:01.786Z,59.90
2018-02-10T02:58:32.711Z,59.40
2018-02-10T03:01:03.545Z,60.10
2018-02-10T03:03:34.366Z,60.90
2018-02-10T03:06:05.206Z,60.40
2018-02-10T03:08:36.163Z,60.30
2018-02-10T03:11:07.110Z,62.20
2018-02-10T03:13:37.755Z,62.00
2018-02-10T03:16:09.345Z,60.90
2018-02-10T03:18:40.149Z,60.10
2018-02-10T03:21:11.834Z,58.70
2018-02-10T03:23:42.720Z,58.70
2018-02-10T03:26:13.489Z,58.70
2018-02-10T03:28:45.208Z,60.40
2018-02-10T03:31:16.056Z,60.40
2018-02-10T03:33:52.960Z,58.60
2018-02-10T03:36:24.683Z,58.80
2018-02-10T03:38:55.661Z,58.70
2018-02-10T03:41:26.342Z,58.30
2018-02-10T03:43:57.007Z,57.80
2018-02-10T03:46:28.311Z,59.10
2018-02-10T03:48:59.174Z,59.10
2018-02-10T03:51:30.174Z,58.80
2018-02-10T03:54:00.962Z,59.60
2018-02-10T03:56:32.316Z,58.60
2018-02-10T03:59:04.039Z,57.60
2018-02-10T04:01:34.853Z,57.50
2018-02-10T04:04:05.811Z,58.40
2018-02-10T04:06:36.546Z,58.60
2018-02-10T04:09:07.487Z,58.10
2018-02-10T04:11:39.145Z,56.90
2018-02-10T04:14:10.199Z,56.90
2018-02-10T04:16:42.043Z,56.30
2018-02-10T04:19:12.883Z,56.30
2018-02-10T04:21:43.466Z,55.90
2018-02-10T04:24:14.242Z,56.40
2018-02-10T04:26:44.781Z,55.40
2018-02-10T04:29:15.746Z,56.20
2018-02-10T04:31:47.460Z,56.40
2018-02-10T04:34:18.517Z,56.30
2018-02-10T04:36:49.247Z,56.00
2018-02-10T04:39:19.946Z,55.40
2018-02-10T04:41:50.667Z,56.20
2018-02-10T04:44:21.345Z,56.00
2018-02-10T04:46:52.737Z,55.20
2018-02-10T04:49:24.247Z,55.30
2018-02-10T04:51:54.921Z,55.20
2018-02-10T04:54:28.121Z,54.80
2018-02-10T04:56:58.540Z,54.80
2018-02-10T04:59:30.949Z,54.60
2018-02-10T05:02:01.625Z,55.10
2018-02-10T05:04:32.892Z,53.70
2018-02-10T05:07:04.925Z,53.90
2018-02-10T05:09:35.955Z,53.90
2018-02-10T05:12:06.696Z,52.70
2018-02-10T05:14:37.650Z,53.10
2018-02-10T05:17:10.149Z,52.60
2018-02-10T05:19:43.597Z,52.60
2018-02-10T05:22:14.570Z,52.00
2018-02-10T05:24:45.222Z,53.00
2018-02-10T05:27:17.116Z,51.60
2018-02-10T05:29:47.905Z,51.60
2018-02-10T05:32:20.057Z,51.30
2018-02-10T05:34:51.699Z,51.30
2018-02-10T05:37:22.622Z,51.30
2018-02-10T05:39:53.591Z,51.30
2018-02-10T05:42:24.843Z,51.20
2018-02-10T05:44:55.677Z,51.10
2018-02-10T05:47:26.497Z,52.30
2018-02-10T05:49:57.308Z,52.10
2018-02-10T05:52:27.879Z,52.30
2018-02-10T05:54:58.324Z,52.30
2018-02-10T05:57:30.434Z,51.00
2018-02-10T06:00:01.418Z,51.00
2018-02-10T06:02:32.898Z,51.60
2018-02-10T06:05:04.690Z,51.80
2018-02-10T06:07:35.679Z,51.80
2018-02-10T06:10:07.404Z,51.50
2018-02-10T06:12:38.367Z,52.10
2018-02-10T06:15:09.143Z,51.50
2018-02-10T06:17:39.883Z,51.80
2018-02-10T06:20:10.771Z,50.60
2018-02-10T06:22:41.634Z,50.50
2018-02-10T06:25:12.518Z,50.90
2018-02-10T06:27:43.289Z,49.90
2018-02-10T06:30:15.227Z,50.00
2018-02-10T06:32:48.926Z,50.00
2018-02-10T06:35:19.567Z,50.80
2018-02-10T06:37:50.486Z,50.40
2018-02-10T06:40:21.251Z,50.80
2018-02-10T06:42:52.902Z,51.60
2018-02-10T06:45:23.809Z,51.40
2018-02-10T06:47:54.623Z,51.90
2018-02-10T06:50:25.541Z,52.30
2018-02-10T06:52:57.679Z,51.80
2018-02-10T06:55:28.635Z,52.20
2018-02-10T06:57:59.991Z,52.00
2018-02-10T07:00:31.462Z,51.90
2018-02-10T07:03:02.302Z,51.80
2018-02-10T07:05:33.666Z,51.50
2018-02-10T07:08:04.760Z,51.50
2018-02-10T07:10:36.518Z,50.70
2018-02-10T07:13:08.674Z,50.10
2018-02-10T07:15:41.314Z,50.00
2018-02-10T07:18:12.428Z,51.20
2018-02-10T07:20:43.949Z,50.30
2018-02-10T07:23:16.885Z,50.10
2018-02-10T07:25:48.087Z,49.30
2018-02-10T07:28:19.135Z,49.30
2018-02-10T07:30:51.129Z,48.30
2018-02-10T07:33:22.133Z,48.20
2018-02-10T07:35:53.902Z,48.30
2018-02-10T07:38:25.501Z,48.60
2018-02-10T07:40:56.321Z,48.60
2018-02-10T07:43:27.230Z,48.60
2018-02-10T07:45:58.846Z,48.30
2018-02-10T07:48:30.257Z,48.30
2018-02-10T07:51:02.048Z,48.40
2018-02-10T07:53:33.195Z,48.20
2018-02-10T07:56:05.120Z,47.50
2018-02-10T07:58:35.934Z,47.40
2018-02-10T08:01:07.641Z,46.70
2018-02-10T08:03:38.480Z,46.70
2018-02-10T08:06:09.281Z,46.50
2018-02-10T08:08:41.295Z,46.20
2018-02-10T08:11:12.139Z,46.00
2018-02-10T08:13:43.249Z,46.20
2018-02-10T08:16:15.064Z,46.60
2018-02-10T08:18:46.307Z,47.10
2018-02-10T08:21:17.831Z,45.70
2018-02-10T08:23:48.972Z,45.70
2018-02-10T08:26:19.881Z,45.80
2018-02-10T08:28:50.830Z,45.70
2018-02-10T08:31:21.903Z,45.10
2018-02-10T08:33:53.312Z,45.00
2018-02-10T08:36:24.070Z,44.70
2018-02-10T08:38:54.833Z,44.60
2018-02-10T08:41:26.395Z,43.90
2018-02-10T08:43:58.069Z,43.20
2018-02-10T08:46:28.842Z,43.20
2018-02-10T08:48:59.686Z,42.90
2018-02-10T08:51:32.018Z,42.80
2018-02-10T08:54:02.862Z,42.80
2018-02-10T08:56:34.237Z,43.10
2018-02-10T08:59:05.110Z,42.50
2018-02-10T09:01:36.928Z,42.60
2018-02-10T09:04:07.781Z,42.50
2018-02-10T09:06:38.523Z,42.00
2018-02-10T09:09:09.980Z,42.40
2018-02-10T09:11:41.403Z,42.70
2018-02-10T09:14:12.753Z,42.70
2018-02-10T09:16:43.691Z,42.70
2018-02-10T09:19:14.662Z,42.50
2018-02-10T09:21:46.495Z,41.20
2018-02-10T09:24:17.432Z,41.20
2018-02-10T09:26:48.375Z,41.60
2018-02-10T09:31:49.566Z,40.70
2018-02-10T09:34:21.344Z,41.30
2018-02-10T09:36:52.687Z,41.30
2018-02-10T09:39:23.782Z,41.00
2018-02-10T09:41:54.580Z,40.60
2018-02-10T09:44:25.447Z,40.70
2018-02-10T09:46:57.077Z,40.60
2018-02-10T09:49:27.840Z,40.60
2018-02-10T09:51:58.554Z,40.80
2018-02-10T09:54:29.544Z,41.10
2018-02-10T09:57:01.223Z,41.80
2018-02-10T09:59:32.109Z,41.80
2018-02-10T10:02:03.200Z,41.90
2018-02-10T10:04:33.907Z,41.90
2018-02-10T10:07:05.570Z,41.70
2018-02-10T10:09:37.530Z,42.20
2018-02-10T10:12:08.391Z,42.20
2018-02-10T10:14:39.751Z,42.20
2018-02-10T10:17:10.615Z,42.50
2018-02-10T10:19:42.242Z,42.80
2018-02-10T10:22:13.177Z,42.70
2018-02-10T10:24:43.854Z,42.60
2018-02-10T10:27:14.926Z,42.40
2018-02-10T10:29:46.544Z,42.50
2018-02-10T10:32:18.123Z,42.50
2018-02-10T10:34:49.702Z,42.70
2018-02-10T10:37:20.680Z,43.40
2018-02-10T10:39:51.617Z,42.60
2018-02-10T10:42:22.390Z,42.50
2018-02-10T10:44:53.998Z,42.30
2018-02-10T10:47:24.743Z,42.30
2018-02-10T10:49:55.605Z,42.10
2018-02-10T10:52:26.374Z,42.30
2018-02-10T10:54:57.141Z,42.30
2018-02-10T10:57:27.906Z,42.40
2018-02-10T10:59:58.948Z,42.30
2018-02-10T11:02:29.510Z,42.60
2018-02-10T11:05:01.225Z,42.80
2018-02-10T11:07:32.136Z,42.80
2018-02-10T11:10:02.735Z,42.70
2018-02-10T11:12:34.338Z,42.80
2018-02-10T11:15:05.070Z,42.80
2018-02-10T11:17:37.037Z,43.00
2018-02-10T11:20:07.910Z,43.10
2018-02-10T11:22:38.856Z,43.20
2018-02-10T11:25:10.327Z,43.80
2018-02-10T11:27:41.761Z,43.30
2018-02-10T11:30:13.264Z,43.60
2018-02-10T11:32:44.223Z,43.60
2018-02-10T11:35:15.066Z,43.60
2018-02-10T11:37:45.774Z,43.70
2018-02-10T11:40:16.578Z,43.70
2018-02-10T11:42:47.346Z,44.00
2018-02-10T11:45:18.178Z,44.20
2018-02-10T11:47:48.786Z,44.40
2018-02-10T11:50:19.425Z,44.60
2018-02-10T11:52:50.206Z,44.70
2018-02-10T11:55:21.023Z,44.90
2018-02-10T11:57:51.873Z,45.10
2018-02-10T12:00:22.549Z,45.10
2018-02-10T12:02:53.207Z,45.20
2018-02-10T12:05:24.025Z,45.50
2018-02-10T12:07:54.643Z,46.00
2018-02-10T12:10:26.083Z,47.30
2018-02-10T12:12:57.646Z,47.80
2018-02-10T12:15:29.261Z,48.20
2018-02-10T12:18:00.048Z,48.20
2018-02-10T12:20:30.885Z,48.50
2018-02-10T12:23:01.601Z,49.00
2018-02-10T12:25:33.103Z,48.90
2018-02-10T12:28:03.978Z,48.90
2018-02-10T12:30:35.574Z,49.30
2018-02-10T12:33:06.241Z,49.20
2018-02-10T12:35:36.954Z,49.40
2018-02-10T12:38:07.706Z,49.70
2018-02-10T12:40:38.577Z,49.90
2018-02-10T12:43:09.952Z,50.00
2018-02-10T12:45:40.711Z,50.00
2018-02-10T12:48:16.495Z,50.20
2018-02-10T12:50:47.990Z,51.30
2018-02-10T12:53:18.766Z,50.70
2018-02-10T12:55:49.489Z,51.00
2018-02-10T12:58:20.186Z,50.90
2018-02-10T13:00:51.102Z,51.00
2018-02-10T13:03:22.693Z,51.60
2018-02-10T13:05:53.517Z,51.50
2018-02-10T13:08:24.353Z,51.70
2018-02-10T13:10:55.161Z,52.20
2018-02-10T13:13:27.027Z,52.90
2018-02-10T13:15:58.773Z,53.10
2018-02-10T13:18:30.424Z,53.60
2018-02-10T13:21:02.066Z,53.30
2018-02-10T13:23:33.016Z,53.70
2018-02-10T13:26:03.815Z,54.30
2018-02-10T13:28:34.858Z,55.30
2018-02-10T13:31:05.778Z,55.70
2018-02-10T13:33:37.371Z,56.00
2018-02-10T13:36:15.113Z,57.40
2018-02-10T13:38:45.846Z,57.40
2018-02-10T13:41:16.593Z,57.70
2018-02-10T13:43:47.590Z,58.10
2018-02-10T13:46:18.306Z,58.40
2018-02-10T13:48:49.453Z,58.80
2018-02-10T13:51:21.125Z,58.50
2018-02-10T13:53:52.044Z,58.50
2018-02-10T13:56:22.922Z,58.20
2018-02-10T13:58:54.603Z,57.80
2018-02-10T14:01:25.618Z,57.80
2018-02-10T14:03:57.352Z,57.90
2018-02-10T14:06:28.267Z,57.90
2018-02-10T14:08:59.397Z,58.00
2018-02-10T14:11:30.125Z,58.10
2018-02-10T14:14:00.883Z,58.20
2018-02-10T14:16:31.748Z,58.10
2018-02-10T14:19:04.581Z,57.80
2018-02-10T14:21:37.963Z,57.80
2018-02-10T14:24:08.859Z,57.80
2018-02-10T14:26:39.610Z,57.90
2018-02-10T14:29:10.773Z,58.00
2018-02-10T14:31:42.565Z,58.10
2018-02-10T14:34:14.430Z,58.20
2018-02-10T14:36:45.407Z,58.40
2018-02-10T14:39:17.254Z,58.80
2018-02-10T14:41:49.019Z,58.80
2018-02-10T14:44:20.930Z,58.90
2018-02-10T14:46:51.987Z,58.90
2018-02-10T14:49:23.603Z,59.20
2018-02-10T14:51:54.618Z,59.20
2018-02-10T14:54:26.355Z,58.90
2018-02-10T14:56:57.182Z,58.90
2018-02-10T14:59:28.181Z,58.80
2018-02-10T15:01:59.276Z,58.70
2018-02-10T15:04:30.681Z,58.30
2018-02-10T15:07:01.721Z,59.90
2018-02-10T15:09:33.017Z,60.60
2018-02-10T15:12:04.513Z,61.60
2018-02-10T15:14:36.394Z,63.10
2018-02-10T15:17:08.129Z,62.10
2018-02-10T15:19:38.926Z,62.40
2018-02-10T15:22:09.897Z,61.40
2018-02-10T15:24:41.100Z,61.70
2018-02-10T15:27:12.882Z,61.40
2018-02-10T15:29:55.353Z,60.20
2018-02-10T15:32:37.289Z,60.20
2018-02-10T15:35:09.051Z,59.80
2018-02-10T15:37:41.013Z,59.70
2018-02-10T15:40:12.989Z,58.80
2018-02-10T15:42:44.418Z,58.70
2018-02-10T15:45:17.213Z,58.20
2018-02-10T15:47:49.414Z,58.10
2018-02-10T15:50:20.563Z,57.90
2018-02-10T15:52:51.795Z,58.50
2018-02-10T15:55:22.820Z,58.40
2018-02-10T15:57:54.311Z,57.80
2018-02-10T16:00:25.342Z,57.70
2018-02-10T16:02:56.194Z,57.30
2018-02-10T16:05:27.237Z,57.40
2018-02-10T16:07:58.513Z,58.10
2018-02-10T16:10:30.222Z,58.70
2018-02-10T16:13:01.310Z,58.70
2018-02-10T16:15:32.870Z,57.90
2018-02-10T16:18:04.889Z,58.50
2018-02-10T16:20:35.963Z,58.50
2018-02-10T16:23:07.861Z,58.70
2018-02-10T16:25:39.119Z,58.60
2018-02-10T16:28:10.153Z,58.10
2018-02-10T16:30:41.031Z,58.40
2018-02-10T16:33:12.851Z,58.00
2018-02-10T16:35:44.378Z,58.30
2018-02-10T16:38:16.431Z,60.00
2018-02-10T16:40:48.182Z,60.30
2018-02-10T16:43:19.747Z,60.20
2018-02-10T16:45:51.384Z,59.20
2018-02-10T16:48:23.691Z,59.00
2018-02-10T16:50:54.806Z,59.00
2018-02-10T16:53:26.854Z,59.50
2018-02-10T16:55:58.087Z,59.40
2018-02-10T16:58:29.467Z,59.90
2018-02-10T17:01:01.646Z,59.70
2018-02-10T17:03:33.748Z,60.60
2018-02-10T17:06:04.800Z,60.50
2018-02-10T17:08:35.907Z,61.20
2018-02-10T17:11:07.892Z,61.50
2018-02-10T17:13:38.575Z,61.50
2018-02-10T17:16:10.539Z,63.80
2018-02-10T17:18:42.300Z,62.00
2018-02-10T17:21:14.087Z,62.20
2018-02-10T17:23:45.327Z,62.10
2018-02-10T17:26:16.308Z,63.20
2018-02-10T17:28:47.289Z,62.90
2018-02-10T17:31:19.062Z,61.30
2018-02-10T17:33:49.998Z,61.30
2018-02-10T17:36:22.875Z,60.30
2018-02-10T17:38:55.932Z,60.50
2018-02-10T17:41:26.742Z,60.40
2018-02-10T17:43:57.374Z,60.40
2018-02-10T17:46:28.319Z,59.80
2018-02-10T17:48:59.222Z,59.20
2018-02-10T17:51:30.246Z,59.60
2018-02-10T17:54:02.020Z,59.50
2018-02-10T17:56:32.790Z,59.50
2018-02-10T17:59:04.677Z,59.60
2018-02-10T18:01:35.672Z,59.50
2018-02-10T18:04:06.649Z,59.70
2018-02-10T18:06:37.491Z,61.00
2018-02-10T18:09:08.518Z,61.00
2018-02-10T18:11:39.347Z,60.30
2018-02-10T18:14:10.252Z,59.90
2018-02-10T18:16:41.008Z,59.80
2018-02-10T18:19:11.963Z,59.20
2018-02-10T18:21:42.830Z,59.70
2018-02-10T18:24:14.411Z,61.10
2018-02-10T18:26:45.226Z,61.00
2018-02-10T18:29:16.853Z,60.00
2018-02-10T18:31:47.626Z,60.00
2018-02-10T18:34:19.200Z,62.10
2018-02-10T18:36:50.934Z,62.10
2018-02-10T18:39:22.680Z,60.40
2018-02-10T18:41:54.311Z,60.60
2018-02-10T18:44:25.179Z,60.60
2018-02-10T18:46:58.336Z,59.50
2018-02-10T18:49:29.318Z,59.50
2018-02-10T18:52:00.051Z,59.30
2018-02-10T18:54:30.854Z,58.90
2018-02-10T18:57:01.830Z,58.40
2018-02-10T18:59:33.105Z,57.70
2018-02-10T19:02:03.917Z,57.40
2018-02-10T19:04:39.814Z,57.40
2018-02-10T19:07:10.667Z,57.70
2018-02-10T19:09:41.624Z,58.10
2018-02-10T19:12:13.255Z,57.90
2018-02-10T19:14:44.060Z,57.80
2018-02-10T19:17:14.928Z,58.00
2018-02-10T19:19:46.095Z,57.80
2018-02-10T19:22:17.796Z,57.20
2018-02-10T19:24:48.767Z,57.20
2018-02-10T19:27:19.515Z,57.80
2018-02-10T19:29:51.166Z,57.50
2018-02-10T19:32:23.392Z,57.10
2018-02-10T19:34:54.357Z,57.10
2018-02-10T19:37:25.295Z,57.40
2018-02-10T19:39:56.141Z,57.50
2018-02-10T19:42:26.960Z,57.60
2018-02-10T19:44:58.006Z,57.60
2018-02-10T19:47:29.603Z,57.50
2018-02-10T19:50:01.019Z,57.90
2018-02-10T19:52:31.961Z,57.90
2018-02-10T19:55:02.359Z,58.20
2018-02-10T19:57:33.212Z,58.10
2018-02-10T20:00:04.161Z,58.00
2018-02-10T20:02:34.850Z,57.90
2018-02-10T20:05:05.750Z,57.70
2018-02-10T20:07:37.586Z,57.20
2018-02-10T20:10:09.041Z,57.10
2018-02-10T20:12:41.202Z,58.70
2018-02-10T20:15:12.148Z,58.50
2018-02-10T20:17:42.904Z,57.70
2018-02-10T20:20:14.292Z,58.50
2018-02-10T20:22:45.231Z,58.50
2018-02-10T20:25:16.090Z,57.50
2018-02-10T20:27:47.040Z,57.80
2018-02-10T20:30:17.656Z,58.70
2018-02-10T20:32:48.506Z,59.90
2018-02-10T20:35:19.298Z,59.20
2018-02-10T20:37:50.057Z,58.20
2018-02-10T20:40:20.752Z,59.00
2018-02-10T20:42:52.342Z,61.60
2018-02-10T20:45:23.075Z,61.60
2018-02-10T20:47:53.928Z,61.20
2018-02-10T20:50:24.556Z,60.80
2018-02-10T20:53:00.518Z,61.00
2018-02-10T20:55:31.501Z,62.90
2018-02-10T20:58:02.886Z,60.90
2018-02-10T21:00:33.628Z,60.80
2018-02-10T21:03:04.489Z,60.80
2018-02-10T21:05:35.267Z,62.50
2018-02-10T21:08:06.104Z,63.70
2018-02-10T21:10:36.976Z,63.40
2018-02-10T21:13:07.834Z,63.40
2018-02-10T21:15:38.788Z,62.70
2018-02-10T21:18:10.422Z,63.90
2018-02-10T21:20:41.260Z,63.90
2018-02-10T21:23:12.027Z,62.80
2018-02-10T21:25:43.801Z,62.80
2018-02-10T21:28:14.670Z,62.80
2018-02-10T21:30:45.507Z,62.70
2018-02-10T21:33:16.344Z,62.20
2018-02-10T21:35:47.205Z,60.40
2018-02-10T21:38:17.939Z,60.10
2018-02-10T21:40:48.927Z,60.00
2018-02-10T21:43:19.520Z,60.60
2018-02-10T21:45:50.301Z,60.00
2018-02-10T21:48:21.187Z,59.30
2018-02-10T21:50:52.018Z,59.50
2018-02-10T21:53:22.953Z,59.80
2018-02-10T21:55:53.771Z,60.40
2018-02-10T21:58:24.491Z,60.10
2018-02-10T22:00:55.318Z,60.80
2018-02-10T22:03:26.135Z,61.20
2018-02-10T22:05:57.038Z,62.10
2018-02-10T22:08:28.558Z,61.50
2018-02-10T22:10:59.426Z,61.50
2018-02-10T22:13:30.398Z,61.20
2018-02-10T22:16:01.991Z,59.30
2018-02-10T22:18:32.976Z,59.30
2018-02-10T22:21:03.912Z,58.50
2018-02-10T22:23:35.538Z,58.80
2018-02-10T22:26:06.304Z,58.30
2018-02-10T22:28:38.278Z,59.10
2018-02-10T22:31:10.012Z,59.60
2018-02-10T22:33:40.861Z,59.70
2018-02-10T22:36:12.446Z,58.90
2018-02-10T22:38:43.342Z,58.80
2018-02-10T22:41:14.150Z,58.40
2018-02-10T22:43:44.995Z,58.40
2018-02-10T22:46:15.683Z,58.20
2018-02-10T22:48:46.474Z,58.20
2018-02-10T22:51:18.022Z,57.20
2018-02-10T22:53:48.834Z,57.10
2018-02-10T22:56:19.642Z,57.30
2018-02-10T22:58:50.526Z,57.50
2018-02-10T23:01:21.445Z,57.50
2018-02-10T23:03:52.206Z,56.90
2018-02-10T23:06:23.030Z,57.20
2018-02-10T23:08:53.854Z,57.70
2018-02-10T23:11:24.312Z,57.10
2018-02-10T23:13:55.149Z,56.60
2018-02-10T23:16:25.842Z,56.30
2018-02-10T23:18:56.727Z,56.50
2018-02-10T23:21:27.600Z,56.80
2018-02-10T23:23:58.509Z,57.30
2018-02-10T23:26:30.126Z,56.60
2018-02-10T23:29:00.985Z,56.50
2018-02-10T23:31:31.681Z,56.60
2018-02-10T23:34:02.619Z,56.40
2018-02-10T23:36:33.222Z,56.40
2018-02-10T23:39:04.159Z,55.20
2018-02-10T23:41:34.940Z,55.20
2018-02-10T23:44:05.782Z,54.80
2018-02-10T23:46:36.425Z,54.40
2018-02-10T23:49:07.689Z,54.20
2018-02-10T23:51:39.285Z,53.40
2018-02-10T23:54:10.119Z,53.40
2018-02-10T23:56:41.799Z,52.90
2018-02-10T23:59:12.550Z,52.80
